logo
Rechercher aéroport 
image banner adimage banner adimage banner ad
image banner ad

SJ6M - Fazenda Lagoa Bonita

Situé à Luciara, Brazil

ICAO - SJ6M, IATA -

Données fournies par Airmate  

Information générale

Coordonnées: S11°9'2" W50°57'4"
Élévation : 636 feet MSL.
Variation magnétique : -20.9° East
Voir autres Aéroports à Tocatins

Données opérationnelles

Special qualification required
Heure actuelle UTC:
Heure actuelle locale:
Météo à : - ( 0 km )
METAR: CYPD 242009Z AUTO 22006KT 4SM -TSRA BR BKN005 BKN009 OVC023 19/19 A2958 RMK LTNG DIST SW W PRESRR PCPN 1.5MM PAST HR SLP020 DENSITY ALT 1300FT
Voir NOTAMs / SUP AIP / TFR affectant cet aéroport [VIEW]
Fréquences de communication: [VIEW]

Pistes:

Identifiant RWYQFULongueur (ft)Largeur (ft)SurfaceLDA (ft)
10282546GRAVEL
28282546GRAVEL

Coordonnées de l'aéroport

Adresse: Luciara Brazil

Vue satellite de SJ6M